Ana Sayfa
METAR-TAF:

METAR-TAF

Havaalanları :

Dillon Airport

Dillon, Montana, Amerika Birleşik Devletleri

Enlem: 45-15-27N, Boylam: 112-33-16W, yükseklik: 1597 m

Güncel hava durumu gözlemi

Rapor saat 19:53 UTC de 1 saat ve 3 dakika önce yapıldı.
Rüzgar batıdan 22 kt ve 36 kt'a kadar ani rüzgarlar
Sıcaklık 19°C
Nem 22%
Basınç 1014 hPa
Görüş mesafesi: 16.1 km
9500 ft yükseklikte az bulutlu

METAR: KDLN 211953Z AUTO 26022G36KT 10SM FEW095 19/M03 A2993 RMK AO2 PK WND 26038/1940 SLP107 T01941033

Saat: 14:56 (20:56 UTC)


TAF: eksik

4.000'den fazla havaalanı için hava durumu gözlemleri ve tahminleri (METAR ve TAF raporları).

Kullanılabilir istasyonlar harita üzerinde sarı ve kırmızı noktalarla gösterilir.

İstasyonun adını görmek için fareyi noktanın üzerinde gezdirin.

Sonrasında hava gözlem ve tahminlerini görmek için tıklayın.

Haritayı değiştirmek için: yaklaştırmak için siyah artı işaretli yeşil düğmeye ve uzaklaştırmak için de eksi işaretli düğmeye hızla tıklayın; bitişik haritalar için yeşil okları kullanın.


METAR-TAF: